sensor_id;sensor_type;location;lat;lon;timestamp;temperature;humidity
29917;DHT22;16786;49.466;11.068;2023-06-10T00:00:00;16.50;99.90
29917;DHT22;16786;49.466;11.068;2023-06-10T00:02:38;16.50;99.90
29917;DHT22;16786;49.466;11.068;2023-06-10T00:05:08;16.40;99.90
29917;DHT22;16786;49.466;11.068;2023-06-10T00:07:36;16.40;99.90
29917;DHT22;16786;49.466;11.068;2023-06-10T00:10:08;16.40;99.90
29917;DHT22;16786;49.466;11.068;2023-06-10T00:12:37;16.30;99.90
29917;DHT22;16786;49.466;11.068;2023-06-10T00:15:07;16.30;99.90
29917;DHT22;16786;49.466;11.068;2023-06-10T00:17:35;16.30;99.90
29917;DHT22;16786;49.466;11.068;2023-06-10T00:20:09;16.30;99.90
29917;DHT22;16786;49.466;11.068;2023-06-10T00:22:39;16.30;99.90
29917;DHT22;16786;49.466;11.068;2023-06-10T00:25:09;16.20;99.90
29917;DHT22;16786;49.466;11.068;2023-06-10T00:27:38;16.20;99.90
29917;DHT22;16786;49.466;11.068;2023-06-10T00:30:06;16.20;99.90
29917;DHT22;16786;49.466;11.068;2023-06-10T00:32:36;16.10;99.90
29917;DHT22;16786;49.466;11.068;2023-06-10T00:35:04;16.10;99.90
29917;DHT22;16786;49.466;11.068;2023-06-10T00:37:34;16.10;99.90
29917;DHT22;16786;49.466;11.068;2023-06-10T00:40:05;16.10;99.90
29917;DHT22;16786;49.466;11.068;2023-06-10T00:42:32;16.00;99.90
29917;DHT22;16786;49.466;11.068;2023-06-10T00:45:01;16.00;99.90
29917;DHT22;16786;49.466;11.068;2023-06-10T00:47:30;16.00;99.90
29917;DHT22;16786;49.466;11.068;2023-06-10T00:49:58;16.00;99.90
29917;DHT22;16786;49.466;11.068;2023-06-10T00:52:28;16.00;99.90
29917;DHT22;16786;49.466;11.068;2023-06-10T00:54:56;15.90;99.90
29917;DHT22;16786;49.466;11.068;2023-06-10T00:57:24;15.90;99.90
29917;DHT22;16786;49.466;11.068;2023-06-10T00:59:54;15.90;99.90
29917;DHT22;16786;49.466;11.068;2023-06-10T01:02:21;15.90;99.90
29917;DHT22;16786;49.466;11.068;2023-06-10T01:04:49;15.80;99.90
29917;DHT22;16786;49.466;11.068;2023-06-10T01:07:33;15.80;99.90
29917;DHT22;16786;49.466;11.068;2023-06-10T01:10:53;15.80;99.90
29917;DHT22;16786;49.466;11.068;2023-06-10T01:13:05;15.70;99.90
29917;DHT22;16786;49.466;11.068;2023-06-10T01:15:35;15.70;99.90
29917;DHT22;16786;49.466;11.068;2023-06-10T01:18:05;15.60;99.90
29917;DHT22;16786;49.466;11.068;2023-06-10T01:20:36;15.60;99.90
29917;DHT22;16786;49.466;11.068;2023-06-10T01:23:08;15.50;99.90
29917;DHT22;16786;49.466;11.068;2023-06-10T01:25:47;15.50;99.90
29917;DHT22;16786;49.466;11.068;2023-06-10T01:28:40;15.50;99.90
29917;DHT22;16786;49.466;11.068;2023-06-10T01:33:54;15.40;99.90
29917;DHT22;16786;49.466;11.068;2023-06-10T01:36:24;15.40;99.90
29917;DHT22;16786;49.466;11.068;2023-06-10T01:38:53;15.30;99.90
29917;DHT22;16786;49.466;11.068;2023-06-10T01:41:21;15.30;99.90
29917;DHT22;16786;49.466;11.068;2023-06-10T01:43:49;15.30;99.90
29917;DHT22;16786;49.466;11.068;2023-06-10T01:46:16;15.30;99.90
29917;DHT22;16786;49.466;11.068;2023-06-10T01:48:48;15.20;99.90
29917;DHT22;16786;49.466;11.068;2023-06-10T01:51:16;15.20;99.90
29917;DHT22;16786;49.466;11.068;2023-06-10T01:53:46;15.10;99.90
29917;DHT22;16786;49.466;11.068;2023-06-10T01:56:14;15.10;99.90
29917;DHT22;16786;49.466;11.068;2023-06-10T01:58:48;15.10;99.90
29917;DHT22;16786;49.466;11.068;2023-06-10T02:01:16;15.10;99.90
29917;DHT22;16786;49.466;11.068;2023-06-10T02:03:45;15.10;99.90
29917;DHT22;16786;49.466;11.068;2023-06-10T02:06:13;15.10;99.90
29917;DHT22;16786;49.466;11.068;2023-06-10T02:08:40;15.10;99.90
29917;DHT22;16786;49.466;11.068;2023-06-10T02:11:08;15.10;99.90
29917;DHT22;16786;49.466;11.068;2023-06-10T02:13:37;15.10;99.90
29917;DHT22;16786;49.466;11.068;2023-06-10T02:16:05;15.10;99.90
29917;DHT22;16786;49.466;11.068;2023-06-10T02:18:33;15.00;99.90
29917;DHT22;16786;49.466;11.068;2023-06-10T02:21:00;15.10;99.90
29917;DHT22;16786;49.466;11.068;2023-06-10T02:23:28;15.00;99.90
29917;DHT22;16786;49.466;11.068;2023-06-10T02:25:56;15.00;99.90
29917;DHT22;16786;49.466;11.068;2023-06-10T02:28:24;14.90;99.90
29917;DHT22;16786;49.466;11.068;2023-06-10T02:30:52;14.90;99.90
29917;DHT22;16786;49.466;11.068;2023-06-10T02:33:20;14.90;99.90
29917;DHT22;16786;49.466;11.068;2023-06-10T02:35:48;14.90;99.90
29917;DHT22;16786;49.466;11.068;2023-06-10T02:38:16;14.80;99.90
29917;DHT22;16786;49.466;11.068;2023-06-10T02:40:44;14.80;99.90
29917;DHT22;16786;49.466;11.068;2023-06-10T02:43:13;14.80;99.90
29917;DHT22;16786;49.466;11.068;2023-06-10T02:45:41;14.80;99.90
29917;DHT22;16786;49.466;11.068;2023-06-10T02:48:10;14.80;99.90
29917;DHT22;16786;49.466;11.068;2023-06-10T02:50:38;14.70;99.90
29917;DHT22;16786;49.466;11.068;2023-06-10T02:53:16;14.70;99.90
29917;DHT22;16786;49.466;11.068;2023-06-10T02:55:48;14.70;99.90
29917;DHT22;16786;49.466;11.068;2023-06-10T02:58:18;14.70;99.90
29917;DHT22;16786;49.466;11.068;2023-06-10T03:00:46;14.60;99.90
29917;DHT22;16786;49.466;11.068;2023-06-10T03:03:14;14.60;99.90
29917;DHT22;16786;49.466;11.068;2023-06-10T03:05:51;14.60;99.90
29917;DHT22;16786;49.466;11.068;2023-06-10T03:08:20;14.60;99.90
29917;DHT22;16786;49.466;11.068;2023-06-10T03:10:48;14.60;99.90
29917;DHT22;16786;49.466;11.068;2023-06-10T03:13:17;14.60;99.90
29917;DHT22;16786;49.466;11.068;2023-06-10T03:15:45;14.60;99.90
29917;DHT22;16786;49.466;11.068;2023-06-10T03:18:16;14.60;99.90
29917;DHT22;16786;49.466;11.068;2023-06-10T03:20:45;14.60;99.90
29917;DHT22;16786;49.466;11.068;2023-06-10T03:23:14;14.50;99.90
29917;DHT22;16786;49.466;11.068;2023-06-10T03:25:43;14.50;99.90
29917;DHT22;16786;49.466;11.068;2023-06-10T03:28:14;14.50;99.90
29917;DHT22;16786;49.466;11.068;2023-06-10T03:30:42;14.50;99.90
29917;DHT22;16786;49.466;11.068;2023-06-10T03:33:10;14.50;99.90
29917;DHT22;16786;49.466;11.068;2023-06-10T03:35:39;14.50;99.90
29917;DHT22;16786;49.466;11.068;2023-06-10T03:38:07;14.50;99.90
29917;DHT22;16786;49.466;11.068;2023-06-10T03:40:34;14.50;99.90
29917;DHT22;16786;49.466;11.068;2023-06-10T03:43:03;14.60;99.90
29917;DHT22;16786;49.466;11.068;2023-06-10T03:45:30;14.70;99.90
29917;DHT22;16786;49.466;11.068;2023-06-10T03:48:00;14.70;99.90
29917;DHT22;16786;49.466;11.068;2023-06-10T03:50:37;14.70;99.90
29917;DHT22;16786;49.466;11.068;2023-06-10T03:53:04;14.70;99.90
29917;DHT22;16786;49.466;11.068;2023-06-10T03:55:32;14.80;99.90
29917;DHT22;16786;49.466;11.068;2023-06-10T03:58:00;14.80;99.90
29917;DHT22;16786;49.466;11.068;2023-06-10T04:00:28;14.80;99.90
29917;DHT22;16786;49.466;11.068;2023-06-10T04:02:57;14.80;99.90
29917;DHT22;16786;49.466;11.068;2023-06-10T04:05:34;14.90;99.90
29917;DHT22;16786;49.466;11.068;2023-06-10T04:08:02;14.90;99.90
29917;DHT22;16786;49.466;11.068;2023-06-10T04:10:32;14.90;99.90
29917;DHT22;16786;49.466;11.068;2023-06-10T04:13:00;14.90;99.90
29917;DHT22;16786;49.466;11.068;2023-06-10T04:15:32;14.90;99.90
29917;DHT22;16786;49.466;11.068;2023-06-10T04:18:06;15.00;99.90
29917;DHT22;16786;49.466;11.068;2023-06-10T04:20:34;15.00;99.90
29917;DHT22;16786;49.466;11.068;2023-06-10T04:23:01;15.00;99.90
29917;DHT22;16786;49.466;11.068;2023-06-10T04:25:31;15.10;99.90
29917;DHT22;16786;49.466;11.068;2023-06-10T04:27:59;15.10;99.90
29917;DHT22;16786;49.466;11.068;2023-06-10T04:30:27;15.10;99.90
29917;DHT22;16786;49.466;11.068;2023-06-10T04:32:55;15.20;99.90
29917;DHT22;16786;49.466;11.068;2023-06-10T04:35:24;15.20;99.90
29917;DHT22;16786;49.466;11.068;2023-06-10T04:37:55;15.20;99.90
29917;DHT22;16786;49.466;11.068;2023-06-10T04:40:25;15.20;99.90
29917;DHT22;16786;49.466;11.068;2023-06-10T04:42:53;15.30;99.90
29917;DHT22;16786;49.466;11.068;2023-06-10T04:45:21;15.30;99.90
29917;DHT22;16786;49.466;11.068;2023-06-10T04:47:50;15.50;99.90
29917;DHT22;16786;49.466;11.068;2023-06-10T04:50:17;15.50;99.90
29917;DHT22;16786;49.466;11.068;2023-06-10T04:52:45;15.60;99.90
29917;DHT22;16786;49.466;11.068;2023-06-10T04:55:12;15.70;99.90
29917;DHT22;16786;49.466;11.068;2023-06-10T04:57:40;15.80;99.90
29917;DHT22;16786;49.466;11.068;2023-06-10T05:00:09;15.90;99.90
29917;DHT22;16786;49.466;11.068;2023-06-10T05:02:37;16.10;99.90
29917;DHT22;16786;49.466;11.068;2023-06-10T05:05:05;16.10;99.90
29917;DHT22;16786;49.466;11.068;2023-06-10T05:07:34;16.20;99.90
29917;DHT22;16786;49.466;11.068;2023-06-10T05:10:02;16.30;99.90
29917;DHT22;16786;49.466;11.068;2023-06-10T05:12:32;16.40;99.90
29917;DHT22;16786;49.466;11.068;2023-06-10T05:15:00;16.50;99.90
29917;DHT22;16786;49.466;11.068;2023-06-10T05:17:28;16.50;99.90
29917;DHT22;16786;49.466;11.068;2023-06-10T05:19:58;16.60;99.90
29917;DHT22;16786;49.466;11.068;2023-06-10T05:22:26;16.70;99.90
29917;DHT22;16786;49.466;11.068;2023-06-10T05:24:54;16.80;99.90
29917;DHT22;16786;49.466;11.068;2023-06-10T05:27:22;16.80;99.90
29917;DHT22;16786;49.466;11.068;2023-06-10T05:29:50;16.90;99.90
29917;DHT22;16786;49.466;11.068;2023-06-10T05:32:18;17.00;99.90
29917;DHT22;16786;49.466;11.068;2023-06-10T05:34:46;17.10;99.90
29917;DHT22;16786;49.466;11.068;2023-06-10T05:37:14;17.20;99.90
29917;DHT22;16786;49.466;11.068;2023-06-10T05:39:41;17.30;99.90
29917;DHT22;16786;49.466;11.068;2023-06-10T05:42:09;17.50;99.90
29917;DHT22;16786;49.466;11.068;2023-06-10T05:44:37;17.50;99.90
29917;DHT22;16786;49.466;11.068;2023-06-10T05:47:05;17.60;99.90
29917;DHT22;16786;49.466;11.068;2023-06-10T05:49:33;17.70;99.90
29917;DHT22;16786;49.466;11.068;2023-06-10T05:52:00;17.80;99.90
29917;DHT22;16786;49.466;11.068;2023-06-10T05:54:28;17.80;99.90
29917;DHT22;16786;49.466;11.068;2023-06-10T05:56:56;17.90;99.90
29917;DHT22;16786;49.466;11.068;2023-06-10T05:59:24;17.90;99.90
29917;DHT22;16786;49.466;11.068;2023-06-10T06:01:51;18.00;99.90
29917;DHT22;16786;49.466;11.068;2023-06-10T06:04:19;18.00;99.90
29917;DHT22;16786;49.466;11.068;2023-06-10T06:06:46;18.00;99.90
29917;DHT22;16786;49.466;11.068;2023-06-10T06:09:14;18.10;99.90
29917;DHT22;16786;49.466;11.068;2023-06-10T06:11:42;18.20;99.90
29917;DHT22;16786;49.466;11.068;2023-06-10T06:14:10;18.30;99.90
29917;DHT22;16786;49.466;11.068;2023-06-10T06:16:38;18.40;99.90
29917;DHT22;16786;49.466;11.068;2023-06-10T06:19:06;18.40;99.90
29917;DHT22;16786;49.466;11.068;2023-06-10T06:21:33;18.50;99.90
29917;DHT22;16786;49.466;11.068;2023-06-10T06:24:01;18.70;99.90
29917;DHT22;16786;49.466;11.068;2023-06-10T06:26:29;18.70;99.90
29917;DHT22;16786;49.466;11.068;2023-06-10T06:28:56;18.80;99.90
29917;DHT22;16786;49.466;11.068;2023-06-10T06:31:24;18.90;99.90
29917;DHT22;16786;49.466;11.068;2023-06-10T06:33:52;18.90;99.90
29917;DHT22;16786;49.466;11.068;2023-06-10T06:36:20;18.80;99.90
29917;DHT22;16786;49.466;11.068;2023-06-10T06:38:47;18.90;99.90
29917;DHT22;16786;49.466;11.068;2023-06-10T06:41:15;18.80;99.90
29917;DHT22;16786;49.466;11.068;2023-06-10T06:43:42;18.90;99.90
29917;DHT22;16786;49.466;11.068;2023-06-10T06:46:30;18.90;99.90
29917;DHT22;16786;49.466;11.068;2023-06-10T06:48:59;19.00;99.90
29917;DHT22;16786;49.466;11.068;2023-06-10T06:51:26;19.20;99.90
29917;DHT22;16786;49.466;11.068;2023-06-10T06:53:55;19.30;99.90
29917;DHT22;16786;49.466;11.068;2023-06-10T06:56:26;19.40;99.90
29917;DHT22;16786;49.466;11.068;2023-06-10T06:58:56;19.40;99.90
29917;DHT22;16786;49.466;11.068;2023-06-10T07:01:24;19.50;99.90
29917;DHT22;16786;49.466;11.068;2023-06-10T07:03:52;19.60;99.90
29917;DHT22;16786;49.466;11.068;2023-06-10T07:06:19;19.80;99.90
29917;DHT22;16786;49.466;11.068;2023-06-10T07:08:48;19.90;99.90
29917;DHT22;16786;49.466;11.068;2023-06-10T07:11:16;20.10;99.90
29917;DHT22;16786;49.466;11.068;2023-06-10T07:13:44;20.30;99.90
29917;DHT22;16786;49.466;11.068;2023-06-10T07:16:12;20.40;99.90
29917;DHT22;16786;49.466;11.068;2023-06-10T07:18:40;20.60;99.90
29917;DHT22;16786;49.466;11.068;2023-06-10T07:21:10;20.80;99.90
29917;DHT22;16786;49.466;11.068;2023-06-10T07:23:37;21.00;99.90
29917;DHT22;16786;49.466;11.068;2023-06-10T07:26:08;21.10;99.90
29917;DHT22;16786;49.466;11.068;2023-06-10T07:28:38;21.20;99.90
29917;DHT22;16786;49.466;11.068;2023-06-10T07:31:05;21.30;99.90
29917;DHT22;16786;49.466;11.068;2023-06-10T07:33:33;21.40;99.90
29917;DHT22;16786;49.466;11.068;2023-06-10T07:36:00;21.50;99.90
29917;DHT22;16786;49.466;11.068;2023-06-10T07:38:28;21.60;99.90
29917;DHT22;16786;49.466;11.068;2023-06-10T07:40:55;21.70;99.90
29917;DHT22;16786;49.466;11.068;2023-06-10T07:43:23;21.80;99.90
29917;DHT22;16786;49.466;11.068;2023-06-10T07:45:51;21.90;99.90
29917;DHT22;16786;49.466;11.068;2023-06-10T07:48:19;21.90;99.90
29917;DHT22;16786;49.466;11.068;2023-06-10T07:50:46;22.00;99.90
29917;DHT22;16786;49.466;11.068;2023-06-10T07:53:14;22.00;99.90
29917;DHT22;16786;49.466;11.068;2023-06-10T07:55:41;22.10;99.90
29917;DHT22;16786;49.466;11.068;2023-06-10T07:58:08;22.20;99.90
29917;DHT22;16786;49.466;11.068;2023-06-10T08:00:36;22.30;99.90
29917;DHT22;16786;49.466;11.068;2023-06-10T08:03:03;22.40;99.90
29917;DHT22;16786;49.466;11.068;2023-06-10T08:05:31;22.50;99.90
29917;DHT22;16786;49.466;11.068;2023-06-10T08:07:59;22.60;99.90
29917;DHT22;16786;49.466;11.068;2023-06-10T08:10:30;22.60;99.90
29917;DHT22;16786;49.466;11.068;2023-06-10T08:12:58;22.70;99.90
29917;DHT22;16786;49.466;11.068;2023-06-10T08:15:25;22.80;99.90
29917;DHT22;16786;49.466;11.068;2023-06-10T08:17:53;22.80;99.90
29917;DHT22;16786;49.466;11.068;2023-06-10T08:20:20;22.90;99.90
29917;DHT22;16786;49.466;11.068;2023-06-10T08:22:47;23.00;99.90
29917;DHT22;16786;49.466;11.068;2023-06-10T08:25:16;23.00;99.90
29917;DHT22;16786;49.466;11.068;2023-06-10T08:27:43;23.10;99.90
29917;DHT22;16786;49.466;11.068;2023-06-10T08:30:11;23.20;99.90
29917;DHT22;16786;49.466;11.068;2023-06-10T08:32:40;23.30;99.90
29917;DHT22;16786;49.466;11.068;2023-06-10T08:35:08;23.40;99.90
29917;DHT22;16786;49.466;11.068;2023-06-10T08:37:36;23.40;99.90
29917;DHT22;16786;49.466;11.068;2023-06-10T08:40:04;23.50;99.90
29917;DHT22;16786;49.466;11.068;2023-06-10T08:43:06;23.60;99.90
29917;DHT22;16786;49.466;11.068;2023-06-10T08:45:36;23.60;99.90
29917;DHT22;16786;49.466;11.068;2023-06-10T08:48:05;23.80;99.90
29917;DHT22;16786;49.466;11.068;2023-06-10T08:50:38;23.90;99.90
29917;DHT22;16786;49.466;11.068;2023-06-10T08:53:07;24.00;99.90
29917;DHT22;16786;49.466;11.068;2023-06-10T08:55:38;24.00;99.90
29917;DHT22;16786;49.466;11.068;2023-06-10T08:58:09;24.10;99.90
29917;DHT22;16786;49.466;11.068;2023-06-10T09:00:37;24.20;99.90
29917;DHT22;16786;49.466;11.068;2023-06-10T09:03:06;24.40;99.90
29917;DHT22;16786;49.466;11.068;2023-06-10T09:05:36;24.50;99.90
29917;DHT22;16786;49.466;11.068;2023-06-10T09:08:08;24.60;99.90
29917;DHT22;16786;49.466;11.068;2023-06-10T09:10:37;24.60;99.90
29917;DHT22;16786;49.466;11.068;2023-06-10T09:13:05;24.70;99.90
29917;DHT22;16786;49.466;11.068;2023-06-10T09:15:33;24.80;99.90
29917;DHT22;16786;49.466;11.068;2023-06-10T09:18:01;25.00;99.90
29917;DHT22;16786;49.466;11.068;2023-06-10T09:20:29;25.10;99.90
29917;DHT22;16786;49.466;11.068;2023-06-10T09:22:58;25.20;99.90
29917;DHT22;16786;49.466;11.068;2023-06-10T09:25:37;25.30;99.90
29917;DHT22;16786;49.466;11.068;2023-06-10T09:28:13;25.50;99.90
29917;DHT22;16786;49.466;11.068;2023-06-10T09:30:41;25.60;99.90
29917;DHT22;16786;49.466;11.068;2023-06-10T09:33:13;25.70;99.90
29917;DHT22;16786;49.466;11.068;2023-06-10T09:35:47;25.90;99.90
29917;DHT22;16786;49.466;11.068;2023-06-10T09:38:20;26.00;99.90
29917;DHT22;16786;49.466;11.068;2023-06-10T09:40:52;26.30;99.90
29917;DHT22;16786;49.466;11.068;2023-06-10T09:43:20;26.40;99.90
29917;DHT22;16786;49.466;11.068;2023-06-10T09:45:50;26.70;99.90
29917;DHT22;16786;49.466;11.068;2023-06-10T09:48:20;26.90;99.90
29917;DHT22;16786;49.466;11.068;2023-06-10T09:50:49;27.00;99.90
29917;DHT22;16786;49.466;11.068;2023-06-10T09:53:17;27.40;99.90
29917;DHT22;16786;49.466;11.068;2023-06-10T09:55:46;27.70;99.90
29917;DHT22;16786;49.466;11.068;2023-06-10T09:58:14;27.60;99.90
29917;DHT22;16786;49.466;11.068;2023-06-10T10:00:41;27.70;99.90
29917;DHT22;16786;49.466;11.068;2023-06-10T10:03:08;27.90;99.90
29917;DHT22;16786;49.466;11.068;2023-06-10T10:05:38;28.10;99.90
29917;DHT22;16786;49.466;11.068;2023-06-10T10:08:05;28.20;99.90
29917;DHT22;16786;49.466;11.068;2023-06-10T10:10:33;27.80;99.90
29917;DHT22;16786;49.466;11.068;2023-06-10T10:13:02;28.10;99.90
29917;DHT22;16786;49.466;11.068;2023-06-10T10:15:32;28.10;99.90
29917;DHT22;16786;49.466;11.068;2023-06-10T10:18:07;28.30;99.90
29917;DHT22;16786;49.466;11.068;2023-06-10T10:20:46;28.60;99.90
29917;DHT22;16786;49.466;11.068;2023-06-10T10:23:25;28.70;99.90
29917;DHT22;16786;49.466;11.068;2023-06-10T10:25:54;28.90;99.90
29917;DHT22;16786;49.466;11.068;2023-06-10T10:28:24;29.20;99.90
29917;DHT22;16786;49.466;11.068;2023-06-10T10:30:59;29.40;99.90
29917;DHT22;16786;49.466;11.068;2023-06-10T10:36:08;29.50;99.90
29917;DHT22;16786;49.466;11.068;2023-06-10T10:38:36;29.50;99.90
29917;DHT22;16786;49.466;11.068;2023-06-10T10:41:04;29.70;99.90
29917;DHT22;16786;49.466;11.068;2023-06-10T10:43:32;30.20;99.30
29917;DHT22;16786;49.466;11.068;2023-06-10T10:46:01;30.80;98.10
29917;DHT22;16786;49.466;11.068;2023-06-10T10:48:37;31.20;97.70
29917;DHT22;16786;49.466;11.068;2023-06-10T10:51:04;31.50;96.50
29917;DHT22;16786;49.466;11.068;2023-06-10T10:53:32;31.70;95.70
29917;DHT22;16786;49.466;11.068;2023-06-10T10:56:16;31.60;95.30
29917;DHT22;16786;49.466;11.068;2023-06-10T10:59:04;32.20;94.90
29917;DHT22;16786;49.466;11.068;2023-06-10T11:01:42;31.90;93.80
29917;DHT22;16786;49.466;11.068;2023-06-10T11:04:12;31.60;93.80
29917;DHT22;16786;49.466;11.068;2023-06-10T11:06:52;31.40;93.80
29917;DHT22;16786;49.466;11.068;2023-06-10T11:09:27;31.10;94.00
29917;DHT22;16786;49.466;11.068;2023-06-10T11:11:59;31.00;94.60
29917;DHT22;16786;49.466;11.068;2023-06-10T11:14:28;31.30;94.10
29917;DHT22;16786;49.466;11.068;2023-06-10T11:16:57;31.70;93.70
29917;DHT22;16786;49.466;11.068;2023-06-10T11:19:36;32.00;93.30
29917;DHT22;16786;49.466;11.068;2023-06-10T11:22:06;32.30;92.90
29917;DHT22;16786;49.466;11.068;2023-06-10T11:24:34;32.00;92.20
29917;DHT22;16786;49.466;11.068;2023-06-10T11:32:32;31.30;92.90
29917;DHT22;16786;49.466;11.068;2023-06-10T11:35:03;32.00;93.00
29917;DHT22;16786;49.466;11.068;2023-06-10T11:37:31;32.50;92.20
29917;DHT22;16786;49.466;11.068;2023-06-10T11:39:59;33.10;91.70
29917;DHT22;16786;49.466;11.068;2023-06-10T11:42:26;33.50;91.00
29917;DHT22;16786;49.466;11.068;2023-06-10T11:44:54;33.80;89.20
29917;DHT22;16786;49.466;11.068;2023-06-10T11:47:22;34.30;86.00
29917;DHT22;16786;49.466;11.068;2023-06-10T11:49:56;34.60;83.30
29917;DHT22;16786;49.466;11.068;2023-06-10T11:52:31;34.90;81.70
29917;DHT22;16786;49.466;11.068;2023-06-10T11:55:00;35.00;80.90
29917;DHT22;16786;49.466;11.068;2023-06-10T11:57:28;35.10;79.80
29917;DHT22;16786;49.466;11.068;2023-06-10T11:59:55;35.60;78.30
29917;DHT22;16786;49.466;11.068;2023-06-10T12:02:23;35.40;77.50
29917;DHT22;16786;49.466;11.068;2023-06-10T12:04:51;34.60;77.60
29917;DHT22;16786;49.466;11.068;2023-06-10T12:07:19;34.10;78.50
29917;DHT22;16786;49.466;11.068;2023-06-10T12:09:58;34.00;78.70
29917;DHT22;16786;49.466;11.068;2023-06-10T12:12:38;33.50;79.30
29917;DHT22;16786;49.466;11.068;2023-06-10T12:15:06;33.60;79.90
29917;DHT22;16786;49.466;11.068;2023-06-10T12:17:37;33.50;79.40
29917;DHT22;16786;49.466;11.068;2023-06-10T12:20:23;34.30;76.80
29917;DHT22;16786;49.466;11.068;2023-06-10T12:22:51;34.90;75.50
29917;DHT22;16786;49.466;11.068;2023-06-10T12:25:24;35.70;74.20
29917;DHT22;16786;49.466;11.068;2023-06-10T12:27:55;36.10;72.50
29917;DHT22;16786;49.466;11.068;2023-06-10T12:30:25;36.70;71.90
29917;DHT22;16786;49.466;11.068;2023-06-10T12:32:53;36.40;70.90
29917;DHT22;16786;49.466;11.068;2023-06-10T12:35:24;36.70;71.30
29917;DHT22;16786;49.466;11.068;2023-06-10T12:38:04;37.20;70.00
29917;DHT22;16786;49.466;11.068;2023-06-10T12:40:38;37.30;68.70
29917;DHT22;16786;49.466;11.068;2023-06-10T12:43:07;37.20;67.60
29917;DHT22;16786;49.466;11.068;2023-06-10T12:45:37;37.60;67.10
29917;DHT22;16786;49.466;11.068;2023-06-10T12:50:40;37.90;67.10
29917;DHT22;16786;49.466;11.068;2023-06-10T12:53:09;37.80;66.20
29917;DHT22;16786;49.466;11.068;2023-06-10T12:55:38;36.00;67.30
29917;DHT22;16786;49.466;11.068;2023-06-10T12:58:06;35.10;68.70
29917;DHT22;16786;49.466;11.068;2023-06-10T13:00:33;34.50;70.70
29917;DHT22;16786;49.466;11.068;2023-06-10T13:03:03;33.70;72.10
29917;DHT22;16786;49.466;11.068;2023-06-10T13:05:34;33.10;73.30
29917;DHT22;16786;49.466;11.068;2023-06-10T13:08:08;32.80;73.50
29917;DHT22;16786;49.466;11.068;2023-06-10T13:10:39;32.30;74.50
29917;DHT22;16786;49.466;11.068;2023-06-10T13:13:06;32.30;75.00
29917;DHT22;16786;49.466;11.068;2023-06-10T13:15:37;32.30;74.90
29917;DHT22;16786;49.466;11.068;2023-06-10T13:18:10;32.00;75.70
29917;DHT22;16786;49.466;11.068;2023-06-10T13:20:39;32.20;75.70
29917;DHT22;16786;49.466;11.068;2023-06-10T13:23:07;32.30;75.60
29917;DHT22;16786;49.466;11.068;2023-06-10T13:25:34;32.70;75.30
29917;DHT22;16786;49.466;11.068;2023-06-10T13:28:02;33.50;75.80
29917;DHT22;16786;49.466;11.068;2023-06-10T13:30:30;35.00;72.50
29917;DHT22;16786;49.466;11.068;2023-06-10T13:32:58;36.20;69.60
29917;DHT22;16786;49.466;11.068;2023-06-10T13:35:25;37.50;67.80
29917;DHT22;16786;49.466;11.068;2023-06-10T13:37:53;38.50;65.50
29917;DHT22;16786;49.466;11.068;2023-06-10T13:40:20;38.90;63.10
29917;DHT22;16786;49.466;11.068;2023-06-10T13:42:49;38.50;62.50
29917;DHT22;16786;49.466;11.068;2023-06-10T13:45:18;37.60;63.50
29917;DHT22;16786;49.466;11.068;2023-06-10T13:47:45;37.10;64.30
29917;DHT22;16786;49.466;11.068;2023-06-10T13:50:13;36.30;65.40
29917;DHT22;16786;49.466;11.068;2023-06-10T13:52:40;35.40;66.60
29917;DHT22;16786;49.466;11.068;2023-06-10T13:55:08;34.30;68.40
29917;DHT22;16786;49.466;11.068;2023-06-10T13:57:36;33.70;69.50
29917;DHT22;16786;49.466;11.068;2023-06-10T14:00:04;34.00;70.30
29917;DHT22;16786;49.466;11.068;2023-06-10T14:02:32;34.40;69.50
29917;DHT22;16786;49.466;11.068;2023-06-10T14:05:00;34.30;69.30
29917;DHT22;16786;49.466;11.068;2023-06-10T14:07:28;34.20;69.70
29917;DHT22;16786;49.466;11.068;2023-06-10T14:09:56;34.00;69.90
29917;DHT22;16786;49.466;11.068;2023-06-10T14:12:23;35.70;67.40
29917;DHT22;16786;49.466;11.068;2023-06-10T14:14:51;38.30;63.90
29917;DHT22;16786;49.466;11.068;2023-06-10T14:17:18;40.50;61.30
29917;DHT22;16786;49.466;11.068;2023-06-10T14:19:46;42.10;58.60
29917;DHT22;16786;49.466;11.068;2023-06-10T14:22:13;43.60;56.00
29917;DHT22;16786;49.466;11.068;2023-06-10T14:24:43;43.40;54.20
29917;DHT22;16786;49.466;11.068;2023-06-10T14:27:10;44.10;53.40
29917;DHT22;16786;49.466;11.068;2023-06-10T14:29:38;42.70;53.80
29917;DHT22;16786;49.466;11.068;2023-06-10T14:32:06;41.30;55.30
29917;DHT22;16786;49.466;11.068;2023-06-10T14:34:35;39.80;56.70
29917;DHT22;16786;49.466;11.068;2023-06-10T14:37:03;38.50;58.50
29917;DHT22;16786;49.466;11.068;2023-06-10T14:39:34;37.30;59.80
29917;DHT22;16786;49.466;11.068;2023-06-10T14:42:02;36.40;61.20
29917;DHT22;16786;49.466;11.068;2023-06-10T14:44:30;37.70;60.80
29917;DHT22;16786;49.466;11.068;2023-06-10T14:46:58;39.10;59.10
29917;DHT22;16786;49.466;11.068;2023-06-10T14:49:25;41.00;56.60
29917;DHT22;16786;49.466;11.068;2023-06-10T14:51:53;41.90;54.80
29917;DHT22;16786;49.466;11.068;2023-06-10T14:54:20;40.90;54.90
29917;DHT22;16786;49.466;11.068;2023-06-10T14:56:50;39.60;55.50
29917;DHT22;16786;49.466;11.068;2023-06-10T14:59:18;38.50;57.30
29917;DHT22;16786;49.466;11.068;2023-06-10T15:01:45;38.50;57.20
29917;DHT22;16786;49.466;11.068;2023-06-10T15:04:12;38.90;57.00
29917;DHT22;16786;49.466;11.068;2023-06-10T15:06:40;38.90;57.50
29917;DHT22;16786;49.466;11.068;2023-06-10T15:09:09;39.80;56.90
29917;DHT22;16786;49.466;11.068;2023-06-10T15:11:37;41.70;55.10
29917;DHT22;16786;49.466;11.068;2023-06-10T15:14:05;43.50;53.10
29917;DHT22;16786;49.466;11.068;2023-06-10T15:16:32;44.80;52.10
29917;DHT22;16786;49.466;11.068;2023-06-10T15:19:00;46.20;50.80
29917;DHT22;16786;49.466;11.068;2023-06-10T15:21:27;47.70;49.10
29917;DHT22;16786;49.466;11.068;2023-06-10T15:23:55;47.80;48.90
29917;DHT22;16786;49.466;11.068;2023-06-10T15:26:22;48.10;48.20
29917;DHT22;16786;49.466;11.068;2023-06-10T15:28:50;48.80;47.20
29917;DHT22;16786;49.466;11.068;2023-06-10T15:31:17;48.30;46.40
29917;DHT22;16786;49.466;11.068;2023-06-10T15:33:45;45.70;47.80
29917;DHT22;16786;49.466;11.068;2023-06-10T15:36:13;44.70;48.10
29917;DHT22;16786;49.466;11.068;2023-06-10T15:38:41;44.70;48.40
29917;DHT22;16786;49.466;11.068;2023-06-10T15:41:08;44.80;48.70